Time;durP1;ratioP1;P1;durP2;ratioP2;P2;SDS_P1;SDS_P2;PMS_P1;PMS_P2;Temp;Humidity;BMP_temperature;BMP_pressure;BME280_temperature;BME280_humidity;BME280_pressure;Samples;Min_cycle;Max_cycle;Signal;HPM_P1;HPM_P2
2022/01/04 00:02:02;;;;;;;13.30;4.50;;;;;;;;;;5119303;27;20511;-72
2022/01/04 00:04:29;;;;;;;12.63;5.77;;;;;;;;;;5119227;27;20457;-73
2022/01/04 00:06:58;;;;;;;7.43;4.60;;;;;;;;;;5118944;27;20474;-72
2022/01/04 00:09:25;;;;;;;11.10;5.10;;;;;;;;;;5119180;27;20533;-72
2022/01/04 00:13:21;;;;;;;10.13;4.70;;;;;;;;;;5118988;27;20465;-72
2022/01/04 00:14:46;;;;;;;15.27;5.30;;;;;;;;;;5118620;27;20447;-72
2022/01/04 00:17:13;;;;;;;10.07;4.20;;;;;;;;;;5120686;27;20490;-72
2022/01/04 00:19:41;;;;;;;11.33;4.90;;;;;;;;;;5119026;27;20478;-72
2022/01/04 00:22:08;;;;;;;8.47;5.27;;;;;;;;;;5119871;27;21160;-72
2022/01/04 00:24:35;;;;;;;13.83;4.37;;;;;;;;;;5118841;27;20450;-72
2022/01/04 00:27:03;;;;;;;8.17;4.13;;;;;;;;;;5118695;27;20858;-72
2022/01/04 00:29:30;;;;;;;10.90;4.97;;;;;;;;;;5119124;27;20928;-72
2022/01/04 00:31:57;;;;;;;13.67;4.30;;;;;;;;;;5118690;27;20470;-72
2022/01/04 00:34:24;;;;;;;13.83;4.80;;;;;;;;;;5119168;27;20446;-72
2022/01/04 00:36:51;;;;;;;11.03;5.67;;;;;;;;;;5119058;27;20487;-72
2022/01/04 00:39:18;;;;;;;10.50;4.97;;;;;;;;;;5118802;27;20481;-73
2022/01/04 00:41:45;;;;;;;10.70;5.57;;;;;;;;;;5120208;27;20455;-72
2022/01/04 00:44:13;;;;;;;6.77;4.23;;;;;;;;;;5120663;27;20476;-72
2022/01/04 00:46:40;;;;;;;12.83;4.50;;;;;;;;;;5118593;27;20443;-72
2022/01/04 00:49:10;;;;;;;12.73;5.50;;;;;;;;;;5119739;27;20516;-72
2022/01/04 00:51:37;;;;;;;9.23;5.83;;;;;;;;;;5119775;27;20803;-72
2022/01/04 00:54:04;;;;;;;10.60;5.97;;;;;;;;;;5118520;27;20452;-72
2022/01/04 00:56:31;;;;;;;9.77;4.60;;;;;;;;;;5118295;27;20490;-72
2022/01/04 00:58:58;;;;;;;10.37;5.20;;;;;;;;;;5118960;27;20478;-72
2022/01/04 01:01:26;;;;;;;14.70;4.77;;;;;;;;;;5118186;27;20572;-72
2022/01/04 01:03:53;;;;;;;14.13;5.63;;;;;;;;;;5118174;27;20451;-72
2022/01/04 01:06:20;;;;;;;9.43;4.77;;;;;;;;;;5117720;27;20455;-72
2022/01/04 01:08:47;;;;;;;11.00;5.07;;;;;;;;;;5117402;27;20462;-72
2022/01/04 01:11:14;;;;;;;7.13;4.97;;;;;;;;;;5120541;27;20479;-72
2022/01/04 01:13:41;;;;;;;8.93;4.13;;;;;;;;;;5119147;27;20442;-72
2022/01/04 01:16:09;;;;;;;12.43;6.37;;;;;;;;;;5119071;27;20799;-72
2022/01/04 01:18:37;;;;;;;14.80;5.60;;;;;;;;;;5118493;27;20900;-72
2022/01/04 01:21:06;;;;;;;16.47;5.20;;;;;;;;;;5118159;27;20717;-72
2022/01/04 01:23:34;;;;;;;8.73;5.47;;;;;;;;;;5118668;27;20478;-72
2022/01/04 01:26:01;;;;;;;7.77;5.00;;;;;;;;;;5118240;27;20465;-72
2022/01/04 01:28:28;;;;;;;12.97;4.80;;;;;;;;;;5118800;27;20504;-72
2022/01/04 01:30:55;;;;;;;11.53;5.80;;;;;;;;;;5118746;27;20490;-72
2022/01/04 01:33:23;;;;;;;15.27;5.47;;;;;;;;;;5118733;27;20442;-73
2022/01/04 01:35:52;;;;;;;10.57;5.20;;;;;;;;;;5118236;27;20529;-72
2022/01/04 01:38:25;;;;;;;8.70;4.40;;;;;;;;;;5118508;27;20487;-72
2022/01/04 01:40:52;;;;;;;11.60;5.03;;;;;;;;;;5117281;27;20459;-72
2022/01/04 01:43:24;;;;;;;16.73;6.37;;;;;;;;;;5119264;27;20519;-72
2022/01/04 01:45:51;;;;;;;16.07;5.90;;;;;;;;;;5118667;27;20494;-72
2022/01/04 01:48:18;;;;;;;12.13;5.60;;;;;;;;;;5118238;27;20447;-72
2022/01/04 01:50:45;;;;;;;10.13;5.37;;;;;;;;;;5118484;27;20546;-72
2022/01/04 01:53:13;;;;;;;10.30;4.37;;;;;;;;;;5118789;27;20479;-72
2022/01/04 01:55:42;;;;;;;11.13;6.13;;;;;;;;;;5118173;27;20486;-73
2022/01/04 01:58:09;;;;;;;10.47;5.37;;;;;;;;;;5117816;27;20988;-72
2022/01/04 02:00:36;;;;;;;9.63;4.80;;;;;;;;;;5117402;27;20480;-72
2022/01/04 02:03:04;;;;;;;8.23;4.47;;;;;;;;;;5117812;27;20880;-72
2022/01/04 02:05:31;;;;;;;13.20;5.67;;;;;;;;;;5117849;27;20456;-72
2022/01/04 02:07:59;;;;;;;8.83;5.30;;;;;;;;;;5118505;27;20457;-73
2022/01/04 02:10:27;;;;;;;12.17;5.60;;;;;;;;;;5118404;27;20541;-73
2022/01/04 02:12:54;;;;;;;15.13;6.40;;;;;;;;;;5118825;27;20535;-72
2022/01/04 02:15:23;;;;;;;8.10;5.57;;;;;;;;;;5118537;27;20770;-73
2022/01/04 02:17:50;;;;;;;12.13;8.13;;;;;;;;;;5119323;27;20434;-72
2022/01/04 02:20:22;;;;;;;17.60;6.50;;;;;;;;;;5118139;27;20483;-72
2022/01/04 02:22:49;;;;;;;17.80;6.90;;;;;;;;;;5118687;27;20462;-72
2022/01/04 02:25:17;;;;;;;9.57;5.40;;;;;;;;;;5118004;27;20921;-72
2022/01/04 02:27:44;;;;;;;16.37;6.30;;;;;;;;;;5118546;27;20451;-72
2022/01/04 02:30:12;;;;;;;17.40;6.73;;;;;;;;;;5117938;27;20873;-72
2022/01/04 02:32:39;;;;;;;12.17;7.53;;;;;;;;;;5117916;27;20518;-72
2022/01/04 02:35:07;;;;;;;11.07;7.53;;;;;;;;;;5117284;27;20454;-73
2022/01/04 02:37:34;;;;;;;10.93;5.73;;;;;;;;;;5118424;27;20503;-72
2022/01/04 02:40:02;;;;;;;11.57;7.07;;;;;;;;;;5117413;27;20489;-71
2022/01/04 02:42:29;;;;;;;15.40;8.40;;;;;;;;;;5117643;27;20519;-72
2022/01/04 02:44:58;;;;;;;10.90;7.30;;;;;;;;;;5117226;27;20446;-72
2022/01/04 02:47:25;;;;;;;17.30;7.60;;;;;;;;;;5117908;27;20462;-72
2022/01/04 02:49:52;;;;;;;16.50;8.13;;;;;;;;;;5117046;27;20455;-72
2022/01/04 02:52:19;;;;;;;12.87;7.30;;;;;;;;;;5117251;27;20457;-72
2022/01/04 02:54:46;;;;;;;11.80;6.80;;;;;;;;;;5118856;27;20486;-72
2022/01/04 02:57:13;;;;;;;20.60;7.30;;;;;;;;;;5117645;27;20478;-71
2022/01/04 02:59:42;;;;;;;24.73;8.07;;;;;;;;;;5117495;27;20450;-72
2022/01/04 03:02:09;;;;;;;19.07;8.60;;;;;;;;;;5117103;27;20466;-72
2022/01/04 03:04:36;;;;;;;17.50;7.30;;;;;;;;;;5117638;27;20537;-72
2022/01/04 03:07:03;;;;;;;13.80;6.90;;;;;;;;;;5117852;27;20869;-72
2022/01/04 03:09:30;;;;;;;17.70;7.80;;;;;;;;;;5117318;27;20529;-71
2022/01/04 03:11:59;;;;;;;15.37;8.07;;;;;;;;;;5118289;27;20458;-72
2022/01/04 03:14:26;;;;;;;12.73;7.87;;;;;;;;;;5117843;27;20925;-72
2022/01/04 03:16:53;;;;;;;15.53;7.83;;;;;;;;;;5117467;27;20486;-72
2022/01/04 03:19:23;;;;;;;14.57;7.77;;;;;;;;;;5117501;27;20449;-71
2022/01/04 03:21:49;;;;;;;7.57;5.00;;;;;;;;;;5116802;27;20447;-72
2022/01/04 03:24:17;;;;;;;16.70;7.60;;;;;;;;;;5117287;27;20448;-72
2022/01/04 03:26:44;;;;;;;14.30;8.10;;;;;;;;;;5117563;27;20892;-72
2022/01/04 03:29:12;;;;;;;14.83;7.17;;;;;;;;;;5117219;27;20451;-72
2022/01/04 03:31:40;;;;;;;12.97;7.83;;;;;;;;;;5117798;27;20459;-72
2022/01/04 03:34:07;;;;;;;12.23;7.63;;;;;;;;;;5117545;27;20447;-71
2022/01/04 03:36:37;;;;;;;17.53;6.70;;;;;;;;;;5116748;27;20490;-72
2022/01/04 03:39:05;;;;;;;16.03;7.70;;;;;;;;;;5117445;27;20446;-72
2022/01/04 03:41:34;;;;;;;15.63;6.57;;;;;;;;;;5116715;27;20463;-72
2022/01/04 03:44:01;;;;;;;10.43;6.63;;;;;;;;;;5116744;27;20455;-72
2022/01/04 03:46:28;;;;;;;13.53;7.30;;;;;;;;;;5117431;27;20496;-72
2022/01/04 03:48:55;;;;;;;12.10;7.30;;;;;;;;;;5116709;27;20451;-72
2022/01/04 03:51:22;;;;;;;15.53;8.60;;;;;;;;;;5116189;27;20446;-72
2022/01/04 03:53:49;;;;;;;17.33;9.27;;;;;;;;;;5116884;27;20458;-72
2022/01/04 03:56:16;;;;;;;17.63;8.93;;;;;;;;;;5116670;27;20610;-72
2022/01/04 03:58:43;;;;;;;14.73;8.47;;;;;;;;;;5116816;27;20466;-72
2022/01/04 04:01:10;;;;;;;16.80;7.90;;;;;;;;;;5116592;27;20462;-72
2022/01/04 04:03:38;;;;;;;15.03;7.23;;;;;;;;;;5118641;27;20461;-72
2022/01/04 04:06:04;;;;;;;13.60;8.03;;;;;;;;;;5120418;27;20523;-73
2022/01/04 04:08:31;;;;;;;16.30;8.10;;;;;;;;;;5120225;27;21103;-72
2022/01/04 04:10:58;;;;;;;13.50;6.87;;;;;;;;;;5119671;27;20447;-72
2022/01/04 04:13:25;;;;;;;12.57;7.57;;;;;;;;;;5119885;27;20455;-72
2022/01/04 04:15:52;;;;;;;14.53;7.47;;;;;;;;;;5120583;27;20791;-72
2022/01/04 04:18:19;;;;;;;11.20;7.73;;;;;;;;;;5119616;27;20452;-72
2022/01/04 04:20:47;;;;;;;13.93;6.23;;;;;;;;;;5120062;27;20443;-72
2022/01/04 04:23:14;;;;;;;16.80;8.87;;;;;;;;;;5119620;27;20554;-72
2022/01/04 04:25:41;;;;;;;19.57;9.30;;;;;;;;;;5119298;27;20748;-72
2022/01/04 04:28:08;;;;;;;19.60;9.20;;;;;;;;;;5119678;27;20727;-73
2022/01/04 04:30:35;;;;;;;15.77;8.70;;;;;;;;;;5119132;27;20481;-72
2022/01/04 04:33:02;;;;;;;15.37;8.67;;;;;;;;;;5120307;27;20443;-72
2022/01/04 04:35:30;;;;;;;14.37;8.40;;;;;;;;;;5119296;27;20844;-72
2022/01/04 04:37:58;;;;;;;20.73;8.43;;;;;;;;;;5119691;27;20521;-72
2022/01/04 04:40:24;;;;;;;15.80;8.77;;;;;;;;;;5119631;27;20447;-72
2022/01/04 04:42:51;;;;;;;19.57;10.00;;;;;;;;;;5119435;27;20831;-72
2022/01/04 04:45:18;;;;;;;20.93;8.90;;;;;;;;;;5119366;27;20536;-72
2022/01/04 04:47:45;;;;;;;16.00;8.20;;;;;;;;;;5119525;27;20463;-72
2022/01/04 04:50:12;;;;;;;16.43;8.50;;;;;;;;;;5119730;27;20455;-72
2022/01/04 04:52:39;;;;;;;14.63;9.47;;;;;;;;;;5119776;27;20512;-72
2022/01/04 04:55:08;;;;;;;17.93;10.10;;;;;;;;;;5119559;27;20847;-72
2022/01/04 04:57:35;;;;;;;20.53;9.23;;;;;;;;;;5119115;27;20483;-72
2022/01/04 05:00:02;;;;;;;15.37;8.97;;;;;;;;;;5119152;27;20515;-72
2022/01/04 05:02:29;;;;;;;15.30;8.00;;;;;;;;;;5119342;27;20451;-72
2022/01/04 05:04:56;;;;;;;15.50;9.97;;;;;;;;;;5119442;27;20446;-72
2022/01/04 05:07:23;;;;;;;15.63;9.10;;;;;;;;;;5118926;27;20461;-71
2022/01/04 05:09:50;;;;;;;12.10;9.00;;;;;;;;;;5120264;27;20878;-72
2022/01/04 05:12:17;;;;;;;20.57;9.80;;;;;;;;;;5118563;27;20927;-70
2022/01/04 05:14:46;;;;;;;19.77;10.27;;;;;;;;;;5118679;27;20467;-72
2022/01/04 05:17:14;;;;;;;16.13;10.13;;;;;;;;;;5118440;27;20493;-73
2022/01/04 05:19:41;;;;;;;17.53;10.50;;;;;;;;;;5119366;27;20482;-72
2022/01/04 05:22:08;;;;;;;15.87;9.77;;;;;;;;;;5118435;27;20492;-72
2022/01/04 05:24:35;;;;;;;16.60;9.70;;;;;;;;;;5118029;27;21067;-72
2022/01/04 05:27:02;;;;;;;16.50;10.63;;;;;;;;;;5118172;27;20458;-72
2022/01/04 05:29:30;;;;;;;16.53;9.63;;;;;;;;;;5118253;27;20462;-72
2022/01/04 05:31:57;;;;;;;16.83;10.10;;;;;;;;;;5118506;27;20734;-72
2022/01/04 05:34:25;;;;;;;17.53;10.93;;;;;;;;;;5117923;27;20811;-72
2022/01/04 05:36:52;;;;;;;19.30;10.10;;;;;;;;;;5118536;27;20505;-72
2022/01/04 05:39:19;;;;;;;19.80;9.10;;;;;;;;;;5117888;27;20919;-72
2022/01/04 05:41:46;;;;;;;23.90;11.50;;;;;;;;;;5118582;27;20454;-70
2022/01/04 05:44:13;;;;;;;15.73;7.87;;;;;;;;;;5117795;27;20467;-72
2022/01/04 05:46:41;;;;;;;18.90;8.93;;;;;;;;;;5118165;27;20465;-72
2022/01/04 05:49:08;;;;;;;18.00;10.97;;;;;;;;;;5118473;27;20466;-72
2022/01/04 05:51:35;;;;;;;13.93;8.93;;;;;;;;;;5118682;27;20450;-72
2022/01/04 05:54:02;;;;;;;17.73;10.10;;;;;;;;;;5117904;27;20459;-72
2022/01/04 05:56:29;;;;;;;18.37;10.00;;;;;;;;;;5117597;27;20478;-72
2022/01/04 05:58:56;;;;;;;19.80;11.20;;;;;;;;;;5118370;27;20455;-73
2022/01/04 06:01:23;;;;;;;13.40;9.17;;;;;;;;;;5117947;27;20508;-72
2022/01/04 06:03:53;;;;;;;21.83;10.20;;;;;;;;;;5118966;27;20886;-72
2022/01/04 06:06:20;;;;;;;23.03;12.03;;;;;;;;;;5118031;27;20453;-72
2022/01/04 06:08:48;;;;;;;17.33;10.90;;;;;;;;;;5118064;27;20458;-72
2022/01/04 06:11:30;;;;;;;24.83;13.50;;;;;;;;;;5117817;27;20866;-72
2022/01/04 06:16:43;;;;;;;18.60;10.47;;;;;;;;;;5117171;27;20485;-72
2022/01/04 06:19:11;;;;;;;19.70;11.57;;;;;;;;;;5117520;27;20883;-72
2022/01/04 06:21:38;;;;;;;16.83;11.10;;;;;;;;;;5117788;27;20497;-72
2022/01/04 06:24:05;;;;;;;20.00;10.33;;;;;;;;;;5118505;27;20461;-72
2022/01/04 06:26:32;;;;;;;19.80;10.30;;;;;;;;;;5115772;27;20441;-72
2022/01/04 06:28:59;;;;;;;19.37;11.13;;;;;;;;;;5117143;27;20474;-72
2022/01/04 06:31:26;;;;;;;19.50;11.50;;;;;;;;;;5106316;28;20452;-72
2022/01/04 06:33:54;;;;;;;18.47;10.10;;;;;;;;;;5096997;28;20455;-72
2022/01/04 06:36:23;;;;;;;20.97;11.63;;;;;;;;;;5096503;28;20487;-72
2022/01/04 06:38:50;;;;;;;20.53;11.93;;;;;;;;;;5096283;28;20466;-72
2022/01/04 06:41:19;;;;;;;19.80;9.93;;;;;;;;;;5096592;28;20882;-72
2022/01/04 06:43:46;;;;;;;16.63;10.00;;;;;;;;;;5096540;28;20595;-72
2022/01/04 06:46:13;;;;;;;14.60;10.60;;;;;;;;;;5095570;28;20448;-72
2022/01/04 06:48:40;;;;;;;20.63;11.30;;;;;;;;;;5096624;28;20547;-72
2022/01/04 06:51:07;;;;;;;20.70;11.20;;;;;;;;;;5094760;28;20721;-72
2022/01/04 06:53:38;;;;;;;17.30;12.37;;;;;;;;;;5096156;28;20445;-72
2022/01/04 06:56:05;;;;;;;15.13;9.20;;;;;;;;;;5095784;28;20495;-72
2022/01/04 06:58:32;;;;;;;18.93;11.70;;;;;;;;;;5096196;28;20478;-72
2022/01/04 07:00:59;;;;;;;17.60;11.80;;;;;;;;;;5096592;28;20464;-72
2022/01/04 07:03:26;;;;;;;22.83;11.10;;;;;;;;;;5095729;28;20810;-72
2022/01/04 07:05:54;;;;;;;18.90;10.00;;;;;;;;;;5096490;28;20531;-72
2022/01/04 07:08:23;;;;;;;24.90;13.63;;;;;;;;;;5115000;27;20457;-72
2022/01/04 07:10:51;;;;;;;25.60;11.17;;;;;;;;;;5105771;27;20455;-72
2022/01/04 07:13:23;;;;;;;19.93;12.47;;;;;;;;;;5103511;27;20466;-73
2022/01/04 07:15:53;;;;;;;15.23;11.27;;;;;;;;;;5113953;27;20504;-72
2022/01/04 07:18:20;;;;;;;22.53;13.43;;;;;;;;;;5116113;27;20440;-72
2022/01/04 07:20:47;;;;;;;22.20;13.90;;;;;;;;;;5116753;27;20529;-72
2022/01/04 07:23:14;;;;;;;25.23;12.33;;;;;;;;;;5115748;27;20447;-72
2022/01/04 07:25:41;;;;;;;21.30;13.40;;;;;;;;;;5114895;28;20917;-72
2022/01/04 07:28:09;;;;;;;19.97;13.20;;;;;;;;;;5113859;27;20447;-73
2022/01/04 07:30:36;;;;;;;19.57;13.13;;;;;;;;;;5115493;27;20446;-73
2022/01/04 07:33:03;;;;;;;24.67;14.87;;;;;;;;;;5116110;27;20447;-72
2022/01/04 07:35:30;;;;;;;24.17;13.53;;;;;;;;;;5111966;27;20767;-72
2022/01/04 07:37:57;;;;;;;37.90;15.57;;;;;;;;;;5100106;28;20478;-72
2022/01/04 07:40:32;;;;;;;25.23;13.50;;;;;;;;;;5119633;27;20458;-72
2022/01/04 07:43:00;;;;;;;21.93;12.93;;;;;;;;;;5120205;27;20423;-72
2022/01/04 07:45:29;;;;;;;22.67;13.63;;;;;;;;;;5118692;27;20454;-72
2022/01/04 07:47:59;;;;;;;21.03;15.17;;;;;;;;;;5119210;27;20469;-72
2022/01/04 07:50:27;;;;;;;20.83;13.13;;;;;;;;;;5118672;27;20485;-73
2022/01/04 07:52:54;;;;;;;27.83;14.03;;;;;;;;;;5107279;27;20458;-72
2022/01/04 07:55:21;;;;;;;31.23;16.60;;;;;;;;;;5119042;27;20531;-71
2022/01/04 07:57:48;;;;;;;22.70;14.47;;;;;;;;;;5118508;27;20486;-71
2022/01/04 08:00:16;;;;;;;27.83;16.50;;;;;;;;;;5117366;27;20553;-71
2022/01/04 08:02:45;;;;;;;23.33;14.37;;;;;;;;;;5118689;28;20475;-71
2022/01/04 08:05:12;;;;;;;22.57;14.77;;;;;;;;;;5118611;28;20465;-70
2022/01/04 08:07:40;;;;;;;24.63;14.50;;;;;;;;;;5117151;28;20917;-71
2022/01/04 08:10:07;;;;;;;21.70;14.57;;;;;;;;;;5118513;28;21056;-73
2022/01/04 08:12:35;;;;;;;22.00;16.13;;;;;;;;;;5117239;28;20442;-72
2022/01/04 08:15:03;;;;;;;27.80;14.97;;;;;;;;;;5118398;28;20446;-71
2022/01/04 08:17:36;;;;;;;26.60;17.60;;;;;;;;;;5117864;27;20694;-73
2022/01/04 08:20:12;;;;;;;23.63;15.70;;;;;;;;;;5118788;27;20446;-72
2022/01/04 08:22:43;;;;;;;20.57;14.20;;;;;;;;;;5118337;27;20518;-72
2022/01/04 08:25:10;;;;;;;27.70;14.90;;;;;;;;;;5118792;27;20776;-72
2022/01/04 08:27:38;;;;;;;25.63;16.87;;;;;;;;;;5128543;27;20693;-72
2022/01/04 08:30:12;;;;;;;27.87;16.70;;;;;;;;;;5120642;27;20455;-73
2022/01/04 08:32:39;;;;;;;21.20;14.87;;;;;;;;;;5118372;27;20843;-72
2022/01/04 08:35:07;;;;;;;22.07;14.57;;;;;;;;;;5118126;27;20447;-73
2022/01/04 08:37:34;;;;;;;21.77;15.40;;;;;;;;;;5114647;27;20515;-72
2022/01/04 08:40:01;;;;;;;23.97;15.83;;;;;;;;;;5118361;27;20747;-72
2022/01/04 08:42:28;;;;;;;21.30;15.43;;;;;;;;;;5117623;27;20469;-73
2022/01/04 08:44:55;;;;;;;19.83;13.03;;;;;;;;;;5113683;27;20457;-72
2022/01/04 08:47:32;;;;;;;23.73;15.10;;;;;;;;;;5115089;28;20462;-71
2022/01/04 08:49:59;;;;;;;17.60;11.70;;;;;;;;;;5118438;27;20519;-71
2022/01/04 08:52:27;;;;;;;20.73;14.80;;;;;;;;;;5117251;27;20498;-72
2022/01/04 08:54:54;;;;;;;25.80;14.43;;;;;;;;;;5118453;27;20879;-73
2022/01/04 08:57:23;;;;;;;19.77;13.63;;;;;;;;;;5118070;27;20481;-72
2022/01/04 08:59:54;;;;;;;20.23;13.97;;;;;;;;;;5117049;27;20460;-72
2022/01/04 09:02:25;;;;;;;21.63;14.00;;;;;;;;;;5103117;28;20886;-73
2022/01/04 09:04:53;;;;;;;19.27;11.60;;;;;;;;;;5109212;27;20447;-73
2022/01/04 09:07:21;;;;;;;22.30;15.40;;;;;;;;;;5106579;28;20531;-72
2022/01/04 09:09:49;;;;;;;21.47;14.87;;;;;;;;;;5117647;28;20481;-72
2022/01/04 09:12:17;;;;;;;22.47;12.37;;;;;;;;;;5116305;28;20465;-72
2022/01/04 09:14:56;;;;;;;17.77;12.33;;;;;;;;;;5117634;28;20451;-72
2022/01/04 09:20:10;;;;;;;20.90;12.87;;;;;;;;;;5116539;28;20450;-72
2022/01/04 09:22:37;;;;;;;17.73;11.07;;;;;;;;;;5130717;27;20756;-72
2022/01/04 09:25:05;;;;;;;23.77;13.00;;;;;;;;;;5116910;27;20466;-72
2022/01/04 09:27:32;;;;;;;23.53;13.60;;;;;;;;;;5124817;27;20908;-72
2022/01/04 09:30:03;;;;;;;18.27;13.93;;;;;;;;;;5118384;27;20479;-72
2022/01/04 09:32:31;;;;;;;22.17;14.77;;;;;;;;;;5117922;27;20850;-71
2022/01/04 09:34:58;;;;;;;21.47;13.57;;;;;;;;;;5118221;27;20996;-72
2022/01/04 09:37:25;;;;;;;18.60;12.90;;;;;;;;;;5118572;27;20639;-72
2022/01/04 09:39:52;;;;;;;22.63;13.47;;;;;;;;;;5117243;27;20443;-71
2022/01/04 09:42:22;;;;;;;21.07;13.30;;;;;;;;;;5117234;27;20458;-73
2022/01/04 09:44:49;;;;;;;26.87;13.40;;;;;;;;;;5129117;27;20481;-71
2022/01/04 09:47:18;;;;;;;20.33;14.17;;;;;;;;;;5115317;27;20541;-72
2022/01/04 09:49:48;;;;;;;19.70;13.07;;;;;;;;;;5119480;27;20454;-72
2022/01/04 09:52:19;;;;;;;23.30;13.13;;;;;;;;;;5109162;27;20462;-72
2022/01/04 09:54:48;;;;;;;22.73;14.33;;;;;;;;;;5113673;27;20458;-72
2022/01/04 09:57:26;;;;;;;22.87;12.80;;;;;;;;;;5108360;28;20488;-71
2022/01/04 09:59:58;;;;;;;22.23;13.20;;;;;;;;;;5127352;27;20446;-73
2022/01/04 10:02:30;;;;;;;23.20;13.13;;;;;;;;;;5134174;27;20447;-72
2022/01/04 10:05:16;;;;;;;27.60;14.47;;;;;;;;;;5123125;27;20472;-73
2022/01/04 10:07:46;;;;;;;13.53;9.83;;;;;;;;;;5137606;27;20839;-72
2022/01/04 10:10:15;;;;;;;22.17;13.93;;;;;;;;;;5138534;27;20537;-72
2022/01/04 10:12:50;;;;;;;17.83;12.70;;;;;;;;;;5136684;27;20453;-72
2022/01/04 10:15:30;;;;;;;23.90;13.67;;;;;;;;;;5127074;27;20485;-73
2022/01/04 10:18:09;;;;;;;23.80;15.13;;;;;;;;;;5109804;28;20482;-73
2022/01/04 10:20:56;;;;;;;20.63;14.60;;;;;;;;;;5117035;27;20492;-72
2022/01/04 10:23:26;;;;;;;26.40;16.47;;;;;;;;;;5120448;27;20455;-72
2022/01/04 10:25:54;;;;;;;31.20;15.00;;;;;;;;;;5115566;28;20468;-72
2022/01/04 10:28:31;;;;;;;17.83;12.40;;;;;;;;;;5115434;28;20855;-71
2022/01/04 10:31:01;;;;;;;17.53;12.10;;;;;;;;;;5114737;28;20710;-72
2022/01/04 10:33:31;;;;;;;21.50;13.97;;;;;;;;;;5114675;28;20508;-72
2022/01/04 10:35:59;;;;;;;21.13;13.67;;;;;;;;;;5114633;28;20466;-71
2022/01/04 10:38:27;;;;;;;30.13;14.50;;;;;;;;;;5116395;27;20573;-73
2022/01/04 10:40:58;;;;;;;20.37;12.67;;;;;;;;;;5115700;28;20873;-71
2022/01/04 10:43:27;;;;;;;21.67;15.33;;;;;;;;;;5115440;28;20450;-71
2022/01/04 10:46:05;;;;;;;20.93;14.23;;;;;;;;;;5123872;27;20462;-72
2022/01/04 10:48:33;;;;;;;19.70;12.93;;;;;;;;;;5124890;27;20449;-71
2022/01/04 10:51:13;;;;;;;18.20;13.73;;;;;;;;;;5127333;27;20463;-72
2022/01/04 10:53:55;;;;;;;20.93;14.30;;;;;;;;;;5116793;27;20458;-73
2022/01/04 10:56:31;;;;;;;17.60;11.20;;;;;;;;;;5118462;27;20518;-72
2022/01/04 10:59:05;;;;;;;22.07;13.80;;;;;;;;;;5121578;27;20770;-74
2022/01/04 11:01:39;;;;;;;24.27;13.87;;;;;;;;;;5116088;28;20515;-73
2022/01/04 11:04:12;;;;;;;29.10;16.37;;;;;;;;;;5108147;27;20450;-72
2022/01/04 11:09:40;;;;;;;19.70;12.50;;;;;;;;;;5086172;28;20702;-72
2022/01/04 11:12:09;;;;;;;18.60;13.07;;;;;;;;;;5098997;28;20459;-71
2022/01/04 11:14:37;;;;;;;17.43;11.80;;;;;;;;;;5094746;28;20568;-70
2022/01/04 11:17:09;;;;;;;21.13;13.70;;;;;;;;;;5084629;28;20544;-72
2022/01/04 11:19:37;;;;;;;13.87;9.17;;;;;;;;;;5095203;28;20436;-72
2022/01/04 11:22:08;;;;;;;22.73;14.90;;;;;;;;;;5098212;28;20444;-72
2022/01/04 11:24:39;;;;;;;16.50;11.07;;;;;;;;;;5098036;28;21074;-72
2022/01/04 11:27:10;;;;;;;24.73;15.90;;;;;;;;;;5096320;28;20860;-73
2022/01/04 11:29:47;;;;;;;17.03;12.40;;;;;;;;;;5086070;28;20451;-72
2022/01/04 11:32:22;;;;;;;11.83;6.97;;;;;;;;;;5097066;28;20451;-72
2022/01/04 11:35:06;;;;;;;17.57;9.70;;;;;;;;;;5096624;28;20588;-71
2022/01/04 11:37:38;;;;;;;14.93;9.23;;;;;;;;;;5081304;28;20831;-71
2022/01/04 11:40:23;;;;;;;13.57;8.53;;;;;;;;;;5078952;28;20546;-72
2022/01/04 11:42:57;;;;;;;22.27;9.87;;;;;;;;;;5094294;28;20447;-72
2022/01/04 11:45:48;;;;;;;15.83;10.53;;;;;;;;;;5098826;28;20459;-71
2022/01/04 11:48:38;;;;;;;20.37;14.73;;;;;;;;;;5099402;28;20448;-71
2022/01/04 11:51:10;;;;;;;13.93;10.60;;;;;;;;;;5098809;28;20470;-71
2022/01/04 11:54:05;;;;;;;17.87;12.17;;;;;;;;;;5098021;28;20458;-70
2022/01/04 11:56:48;;;;;;;20.83;11.60;;;;;;;;;;5097046;28;20475;-70
2022/01/04 11:59:25;;;;;;;20.87;11.83;;;;;;;;;;5098247;28;20835;-71
2022/01/04 12:01:58;;;;;;;21.70;12.77;;;;;;;;;;5096480;28;20912;-73
2022/01/04 12:04:59;;;;;;;16.30;10.20;;;;;;;;;;5098826;28;20448;-73
2022/01/04 12:07:55;;;;;;;19.33;10.67;;;;;;;;;;5118593;28;20454;-73
2022/01/04 12:10:43;;;;;;;18.00;10.47;;;;;;;;;;5069880;28;20477;-73
2022/01/04 12:13:14;;;;;;;15.87;9.83;;;;;;;;;;5096563;28;20468;-72
2022/01/04 12:16:02;;;;;;;12.67;9.17;;;;;;;;;;5097926;28;20451;-71
2022/01/04 12:18:47;;;;;;;17.13;10.17;;;;;;;;;;5114010;28;20470;-72
2022/01/04 12:21:21;;;;;;;13.83;10.60;;;;;;;;;;5099301;28;20834;-71
2022/01/04 12:23:50;;;;;;;17.53;11.50;;;;;;;;;;5097812;28;20712;-71
2022/01/04 12:26:26;;;;;;;15.93;9.27;;;;;;;;;;5095751;28;20469;-73
2022/01/04 12:29:12;;;;;;;10.43;7.00;;;;;;;;;;5078783;28;20447;-72
2022/01/04 12:31:45;;;;;;;16.23;6.80;;;;;;;;;;5078524;28;20453;-73
2022/01/04 12:34:39;;;;;;;9.03;5.93;;;;;;;;;;5089303;28;20446;-72
2022/01/04 12:37:08;;;;;;;7.50;5.73;;;;;;;;;;5050153;28;20995;-73
2022/01/04 12:39:40;;;;;;;7.33;5.00;;;;;;;;;;5098170;28;20523;-73
2022/01/04 12:42:12;;;;;;;8.23;4.87;;;;;;;;;;5099477;28;20831;-72
2022/01/04 12:44:44;;;;;;;8.37;4.33;;;;;;;;;;5097358;28;20449;-71
2022/01/04 12:47:21;;;;;;;5.60;3.90;;;;;;;;;;5097692;28;20520;-73
2022/01/04 12:49:50;;;;;;;6.10;3.23;;;;;;;;;;5099092;28;20459;-73
2022/01/04 12:52:19;;;;;;;5.40;3.37;;;;;;;;;;5097209;28;20774;-73
2022/01/04 12:54:51;;;;;;;4.90;3.47;;;;;;;;;;5092618;28;20475;-73
2022/01/04 12:57:21;;;;;;;7.30;3.53;;;;;;;;;;5095681;28;20480;-72
2022/01/04 13:00:02;;;;;;;4.47;1.63;;;;;;;;;;5097268;28;20463;-73
2022/01/04 13:02:33;;;;;;;3.87;3.10;;;;;;;;;;5097328;28;20496;-73
2022/01/04 13:05:06;;;;;;;5.33;3.60;;;;;;;;;;5097620;28;20604;-72
2022/01/04 13:07:36;;;;;;;6.87;3.60;;;;;;;;;;5097290;28;20554;-72
2022/01/04 13:10:05;;;;;;;2.70;1.87;;;;;;;;;;5097677;28;20443;-72
2022/01/04 13:12:44;;;;;;;5.73;4.40;;;;;;;;;;5098053;28;20444;-72
2022/01/04 13:15:12;;;;;;;6.53;4.33;;;;;;;;;;5096837;28;20526;-74
2022/01/04 13:17:50;;;;;;;8.40;4.80;;;;;;;;;;5097901;28;20475;-73
2022/01/04 13:20:23;;;;;;;7.93;4.30;;;;;;;;;;5097570;28;20543;-72
2022/01/04 13:22:56;;;;;;;5.70;3.37;;;;;;;;;;5096147;28;20440;-74
2022/01/04 13:25:38;;;;;;;3.40;2.20;;;;;;;;;;5092447;28;20455;-73
2022/01/04 13:28:11;;;;;;;8.00;5.30;;;;;;;;;;5094697;28;20526;-73
2022/01/04 13:30:41;;;;;;;4.17;1.93;;;;;;;;;;5097277;28;20467;-72
2022/01/04 13:33:11;;;;;;;5.33;3.37;;;;;;;;;;5096734;28;20490;-73
2022/01/04 13:35:45;;;;;;;4.17;2.57;;;;;;;;;;5094823;28;20482;-73
2022/01/04 13:38:12;;;;;;;3.97;2.07;;;;;;;;;;5096777;28;20484;-72
2022/01/04 13:40:43;;;;;;;6.53;1.90;;;;;;;;;;5098223;28;20471;-73
2022/01/04 13:43:13;;;;;;;3.70;3.00;;;;;;;;;;5097344;28;20442;-72
2022/01/04 13:45:44;;;;;;;3.93;1.90;;;;;;;;;;5097064;28;20486;-73
2022/01/04 13:48:11;;;;;;;6.20;4.20;;;;;;;;;;5096985;28;20527;-73
2022/01/04 13:50:50;;;;;;;6.60;3.20;;;;;;;;;;5108098;28;20462;-75
2022/01/04 13:53:17;;;;;;;3.93;2.50;;;;;;;;;;5117818;28;20447;-73
2022/01/04 13:56:17;;;;;;;6.40;3.07;;;;;;;;;;5116353;28;20559;-73
2022/01/04 13:58:50;;;;;;;8.07;2.80;;;;;;;;;;5015872;28;20443;-72
2022/01/04 14:01:26;;;;;;;4.73;3.30;;;;;;;;;;5088155;28;20755;-72
2022/01/04 14:04:01;;;;;;;4.50;3.17;;;;;;;;;;5096192;28;20454;-71
2022/01/04 14:06:51;;;;;;;5.10;2.60;;;;;;;;;;5096960;28;20457;-73
2022/01/04 14:09:22;;;;;;;3.50;2.23;;;;;;;;;;5083709;28;20471;-73
2022/01/04 14:12:13;;;;;;;7.80;3.40;;;;;;;;;;5090888;28;20480;-73
2022/01/04 14:14:46;;;;;;;5.67;2.40;;;;;;;;;;5076754;28;20482;-72
2022/01/04 14:17:13;;;;;;;5.33;2.30;;;;;;;;;;5094398;28;20479;-72
2022/01/04 14:19:52;;;;;;;5.80;4.30;;;;;;;;;;5096600;28;20487;-72
2022/01/04 14:22:22;;;;;;;9.47;4.40;;;;;;;;;;5094743;28;20462;-72
2022/01/04 14:25:00;;;;;;;4.03;2.80;;;;;;;;;;5091939;28;20460;-74
2022/01/04 14:27:28;;;;;;;3.30;2.33;;;;;;;;;;5084805;28;21028;-72
2022/01/04 14:30:04;;;;;;;2.37;1.43;;;;;;;;;;5087055;28;20448;-73
2022/01/04 14:32:33;;;;;;;8.80;4.70;;;;;;;;;;5093654;28;20439;-73
2022/01/04 14:35:11;;;;;;;5.90;3.37;;;;;;;;;;5095034;28;20460;-73
2022/01/04 14:37:45;;;;;;;3.93;2.67;;;;;;;;;;5094723;28;20471;-73
2022/01/04 14:40:17;;;;;;;4.10;3.03;;;;;;;;;;5095258;28;20789;-73
2022/01/04 14:42:54;;;;;;;5.80;3.23;;;;;;;;;;5095885;28;20456;-74
2022/01/04 14:45:23;;;;;;;6.27;4.67;;;;;;;;;;5095135;28;20455;-73
2022/01/04 14:47:56;;;;;;;6.60;4.00;;;;;;;;;;5093743;28;20448;-73
2022/01/04 14:50:27;;;;;;;6.37;4.80;;;;;;;;;;5095882;28;20733;-73
2022/01/04 14:52:56;;;;;;;8.03;5.20;;;;;;;;;;5094826;28;20491;-72